Time;durP1;ratioP1;P1;durP2;ratioP2;P2;SDS_P1;SDS_P2;PMS_P1;PMS_P2;Temp;Humidity;BMP_temperature;BMP_pressure;BME280_temperature;BME280_humidity;BME280_pressure;Samples;Min_cycle;Max_cycle;Signal;HPM_P1;HPM_P2
2024/03/19 00:00:22;;;;;;;6.63;4.87;;;;;;;6.97;74.26;101096.69;5026617;28;20210;-71
2024/03/19 00:02:48;;;;;;;8.77;5.80;;;;;;;6.98;74.13;101092.25;5029144;28;20206;-71
2024/03/19 00:05:15;;;;;;;7.40;4.73;;;;;;;6.98;74.96;101092.25;5026490;28;20775;-72
2024/03/19 00:07:42;;;;;;;7.63;5.20;;;;;;;7.00;74.92;101105.38;5027070;28;20212;-72
2024/03/19 00:10:09;;;;;;;7.80;5.03;;;;;;;6.99;74.85;101098.41;5027229;28;20660;-71
2024/03/19 00:12:36;;;;;;;6.50;5.27;;;;;;;6.96;74.57;101104.69;5027071;28;20234;-71
2024/03/19 00:15:02;;;;;;;6.20;4.67;;;;;;;6.95;74.57;101098.53;5023529;28;20317;-71
2024/03/19 00:17:33;;;;;;;7.07;5.07;;;;;;;6.95;74.84;101108.25;5023185;28;20214;-72
2024/03/19 00:19:59;;;;;;;6.67;4.87;;;;;;;6.95;75.02;101117.06;5026890;28;20640;-71
2024/03/19 00:22:26;;;;;;;6.07;4.63;;;;;;;6.94;74.96;101110.03;5024971;28;20289;-71
2024/03/19 00:24:53;;;;;;;8.20;4.60;;;;;;;6.95;74.91;101109.13;5023109;28;20320;-71
2024/03/19 00:27:19;;;;;;;10.57;6.10;;;;;;;6.95;74.72;101114.41;5015486;28;20675;-72
2024/03/19 00:29:46;;;;;;;8.27;5.40;;;;;;;6.96;74.96;101110.84;5024823;28;20297;-72
2024/03/19 00:32:13;;;;;;;6.47;4.73;;;;;;;6.95;75.43;101106.47;5020446;28;20725;-72
2024/03/19 00:34:41;;;;;;;6.30;4.87;;;;;;;6.94;75.80;101110.03;5029286;28;20230;-71
2024/03/19 00:37:08;;;;;;;7.17;4.50;;;;;;;6.94;75.86;101111.81;5020844;28;20208;-71
2024/03/19 00:39:34;;;;;;;7.27;5.17;;;;;;;6.94;76.00;101117.13;5021504;28;20213;-72
2024/03/19 00:42:01;;;;;;;6.50;4.40;;;;;;;6.95;75.67;101114.41;5026040;28;20233;-70
2024/03/19 00:44:28;;;;;;;7.53;4.77;;;;;;;6.94;76.06;101112.69;5024037;28;20264;-71
2024/03/19 00:46:55;;;;;;;6.53;5.00;;;;;;;6.96;75.88;101116.13;5021748;28;20214;-72
2024/03/19 00:49:21;;;;;;;7.40;4.67;;;;;;;6.94;76.88;101117.13;5023362;28;20206;-70
2024/03/19 00:51:49;;;;;;;7.07;4.47;;;;;;;6.93;77.02;101121.56;5022601;28;20230;-72
2024/03/19 00:54:16;;;;;;;5.30;4.27;;;;;;;6.93;77.28;101121.56;5024135;28;20317;-71
2024/03/19 00:56:43;;;;;;;7.43;4.50;;;;;;;6.94;77.21;101117.97;5017823;28;20249;-72
2024/03/19 00:59:09;;;;;;;6.80;4.60;;;;;;;6.94;77.18;101122.41;5029523;28;20747;-71
2024/03/19 01:01:36;;;;;;;6.77;4.70;;;;;;;6.94;77.16;101117.97;5029129;28;20217;-71
2024/03/19 01:04:04;;;;;;;5.53;4.60;;;;;;;6.94;76.91;101112.69;5029992;28;20228;-71
2024/03/19 01:06:31;;;;;;;7.83;4.43;;;;;;;6.91;76.96;101120.75;5030285;28;20209;-72
2024/03/19 01:08:59;;;;;;;5.77;4.23;;;;;;;6.90;77.02;101116.38;5029080;28;20293;-71
2024/03/19 01:11:26;;;;;;;5.97;4.70;;;;;;;6.91;77.73;101112.81;5026443;28;20772;-71
2024/03/19 01:13:52;;;;;;;6.30;4.10;;;;;;;6.90;77.88;101105.78;5029999;28;20229;-71
2024/03/19 01:16:19;;;;;;;7.67;5.13;;;;;;;6.91;77.17;101101.34;5024520;28;20301;-71
2024/03/19 01:18:45;;;;;;;6.20;4.77;;;;;;;6.87;77.34;101108.56;5029138;28;20296;-72
2024/03/19 01:21:12;;;;;;;6.60;4.63;;;;;;;6.82;78.33;101102.56;5025127;28;20650;-71
2024/03/19 01:23:39;;;;;;;5.03;4.10;;;;;;;6.80;78.75;101103.59;5023906;28;20226;-71
2024/03/19 01:26:07;;;;;;;6.13;4.37;;;;;;;6.78;78.60;101105.44;5025894;28;20206;-71
2024/03/19 01:28:33;;;;;;;5.83;3.63;;;;;;;6.79;78.88;101097.44;5029899;28;20298;-72
2024/03/19 01:31:00;;;;;;;5.23;4.63;;;;;;;6.76;79.08;101100.19;5024470;28;20300;-72
2024/03/19 01:33:26;;;;;;;5.97;4.27;;;;;;;6.74;79.62;101095.88;5035233;28;20332;-72
2024/03/19 01:35:53;;;;;;;6.87;4.90;;;;;;;6.74;79.23;101094.09;5028623;28;20300;-71
2024/03/19 01:38:23;;;;;;;4.53;4.10;;;;;;;6.71;79.87;101091.56;5034784;28;20198;-72
2024/03/19 01:40:50;;;;;;;5.20;3.97;;;;;;;6.61;79.59;101083.16;5035777;28;20240;-72
2024/03/19 01:43:20;;;;;;;5.53;4.00;;;;;;;6.61;79.98;101090.22;5030758;28;20225;-71
2024/03/19 01:46:25;;;;;;;6.03;4.40;;;;;;;6.63;79.88;101087.53;5029267;28;20304;-71
2024/03/19 01:48:53;;;;;;;6.37;4.40;;;;;;;6.60;80.72;101085.84;5027768;28;20292;-72
2024/03/19 01:51:20;;;;;;;6.53;4.17;;;;;;;6.61;80.69;101093.75;5031713;28;20250;-72
2024/03/19 01:53:48;;;;;;;6.07;4.43;;;;;;;6.58;80.74;101083.28;5027575;28;20856;-71
2024/03/19 01:56:15;;;;;;;6.97;5.00;;;;;;;6.59;80.64;101084.13;5031645;28;20208;-71
2024/03/19 01:58:46;;;;;;;5.83;4.43;;;;;;;6.57;80.64;101084.19;5030391;28;20314;-71
2024/03/19 02:01:12;;;;;;;5.40;4.17;;;;;;;6.53;81.21;101081.72;5029096;28;20197;-71
2024/03/19 02:03:40;;;;;;;7.23;4.63;;;;;;;6.49;81.56;101075.69;5031348;28;20229;-72
2024/03/19 02:06:06;;;;;;;5.27;3.97;;;;;;;6.50;81.97;101080.06;5030600;28;20292;-71
2024/03/19 02:08:33;;;;;;;6.57;4.30;;;;;;;6.51;81.31;101075.63;5032605;28;20565;-72
2024/03/19 02:11:00;;;;;;;7.93;4.57;;;;;;;6.45;81.43;101087.28;5033570;28;20296;-71
2024/03/19 02:13:26;;;;;;;5.47;4.70;;;;;;;6.46;81.04;101090.81;5035112;28;20232;-71
2024/03/19 02:15:55;;;;;;;6.00;4.33;;;;;;;6.46;81.58;101088.16;5035098;28;20300;-71
2024/03/19 02:18:22;;;;;;;6.60;4.60;;;;;;;6.47;81.91;101100.47;5036317;28;20232;-71
2024/03/19 02:20:49;;;;;;;5.83;4.40;;;;;;;6.48;81.60;101091.59;5028620;28;20219;-71
2024/03/19 02:23:18;;;;;;;5.63;4.50;;;;;;;6.50;81.81;101089.78;5035945;28;20209;-71
2024/03/19 02:25:44;;;;;;;4.67;4.10;;;;;;;6.50;81.55;101085.34;5035780;28;20900;-71
2024/03/19 02:28:11;;;;;;;5.97;4.27;;;;;;;6.52;81.33;101078.22;5036559;28;20653;-71
2024/03/19 02:30:37;;;;;;;6.43;4.60;;;;;;;6.52;81.55;101077.34;5034771;28;20206;-71
2024/03/19 02:33:04;;;;;;;6.13;4.70;;;;;;;6.50;81.68;101076.53;5039122;28;20225;-71
2024/03/19 02:35:31;;;;;;;8.23;5.20;;;;;;;6.50;81.72;101079.19;5028623;28;20296;-72
2024/03/19 02:37:58;;;;;;;5.73;4.17;;;;;;;6.50;81.60;101084.47;5039238;28;20306;-72
2024/03/19 02:40:26;;;;;;;4.80;3.70;;;;;;;6.52;82.13;101082.63;5031934;28;20289;-71
2024/03/19 02:42:52;;;;;;;6.63;4.10;;;;;;;6.50;82.25;101088.00;5035793;28;20760;-71
2024/03/19 02:45:21;;;;;;;7.30;5.30;;;;;;;6.48;81.60;101081.03;5033713;28;20329;-71
2024/03/19 02:47:48;;;;;;;5.93;4.37;;;;;;;6.47;82.06;101089.88;5034600;28;20198;-71
2024/03/19 02:50:14;;;;;;;6.63;4.57;;;;;;;6.47;81.98;101090.75;5035041;28;20210;-71
2024/03/19 02:52:41;;;;;;;6.17;4.23;;;;;;;6.47;81.60;101090.75;5036061;28;20222;-71
2024/03/19 02:55:08;;;;;;;6.53;4.27;;;;;;;6.44;82.02;101077.66;5032089;28;20799;-72
2024/03/19 02:57:36;;;;;;;5.90;4.53;;;;;;;6.40;81.59;101091.06;5037118;28;20297;-72
2024/03/19 03:00:08;;;;;;;5.63;4.60;;;;;;;6.40;82.14;101088.41;5036051;28;20289;-71
2024/03/19 03:02:35;;;;;;;5.57;4.33;;;;;;;6.39;82.43;101086.69;5034453;28;20248;-72
2024/03/19 03:05:01;;;;;;;5.70;3.83;;;;;;;6.37;82.46;101094.69;5033388;28;20245;-71
2024/03/19 03:07:28;;;;;;;5.90;4.40;;;;;;;6.36;82.03;101087.69;5031719;28;20300;-71
2024/03/19 03:09:55;;;;;;;5.60;4.40;;;;;;;6.34;82.25;101086.00;5037446;28;20295;-71
2024/03/19 03:12:21;;;;;;;5.87;4.43;;;;;;;6.32;82.60;101085.19;5035281;28;20321;-72
2024/03/19 03:14:49;;;;;;;6.83;4.57;;;;;;;6.30;82.53;101087.91;5033519;28;20221;-72
2024/03/19 03:17:16;;;;;;;5.43;4.17;;;;;;;6.30;82.85;101092.31;5031746;28;20293;-71
2024/03/19 03:19:42;;;;;;;6.53;4.53;;;;;;;6.27;82.55;101088.00;5038018;28;20214;-72
2024/03/19 03:22:09;;;;;;;5.20;4.20;;;;;;;6.26;82.56;101091.59;5031959;28;20288;-72
2024/03/19 03:24:36;;;;;;;7.07;4.70;;;;;;;6.23;82.86;101089.94;5035513;28;20671;-71
2024/03/19 03:27:03;;;;;;;7.07;4.70;;;;;;;6.22;83.19;101088.22;5032321;28;20289;-71
2024/03/19 03:29:30;;;;;;;5.10;4.23;;;;;;;6.20;82.98;101090.06;5032577;28;20201;-71
2024/03/19 03:31:58;;;;;;;6.50;4.53;;;;;;;6.18;83.51;101089.25;5033657;28;20222;-70
2024/03/19 03:34:28;;;;;;;5.87;4.60;;;;;;;6.15;83.23;101092.00;5032165;28;20235;-70
2024/03/19 03:36:55;;;;;;;5.87;4.93;;;;;;;6.12;82.91;101092.13;5028058;28;20261;-70
2024/03/19 03:39:21;;;;;;;7.07;5.03;;;;;;;6.11;82.95;101100.97;5029898;28;20202;-70
2024/03/19 03:41:48;;;;;;;6.53;4.60;;;;;;;6.08;82.82;101090.53;5029796;28;20199;-70
2024/03/19 03:44:14;;;;;;;6.73;4.50;;;;;;;6.05;83.09;101093.28;5030678;28;20720;-70
2024/03/19 03:46:41;;;;;;;6.17;4.77;;;;;;;6.02;83.18;101087.25;5032153;28;20241;-70
2024/03/19 03:49:09;;;;;;;7.10;4.53;;;;;;;5.99;82.87;101090.84;5038921;28;20228;-71
2024/03/19 03:51:35;;;;;;;5.87;4.80;;;;;;;5.96;83.57;101093.63;5029228;28;20217;-70
2024/03/19 03:54:02;;;;;;;6.73;4.23;;;;;;;5.94;83.33;101095.44;5037002;28;20439;-71
2024/03/19 03:56:29;;;;;;;6.87;4.57;;;;;;;5.90;83.71;101088.56;5029590;28;20681;-70
2024/03/19 03:58:56;;;;;;;5.07;4.10;;;;;;;5.85;83.40;101079.91;5032772;28;20308;-70
2024/03/19 04:01:22;;;;;;;8.23;4.50;;;;;;;5.81;84.05;101078.28;5032261;28;20293;-70
2024/03/19 04:03:50;;;;;;;7.30;4.57;;;;;;;5.77;84.15;101092.53;5035432;28;20308;-70
2024/03/19 04:06:17;;;;;;;5.93;4.70;;;;;;;5.74;84.02;101085.56;5028782;28;20664;-70
2024/03/19 04:08:44;;;;;;;7.70;4.67;;;;;;;5.71;84.52;101088.34;5031193;28;20225;-70
2024/03/19 04:11:11;;;;;;;6.33;4.87;;;;;;;5.69;84.75;101090.19;5038669;28;20480;-71
2024/03/19 04:13:38;;;;;;;7.70;5.07;;;;;;;5.66;84.91;101092.94;5035540;28;20230;-70
2024/03/19 04:16:05;;;;;;;7.30;4.87;;;;;;;5.62;84.97;101090.44;5030897;28;20301;-71
2024/03/19 04:18:32;;;;;;;6.40;4.97;;;;;;;5.56;84.80;101097.66;5028696;28;20288;-70
2024/03/19 04:20:59;;;;;;;5.80;4.50;;;;;;;5.53;84.96;101094.28;5032616;28;20197;-70
2024/03/19 04:23:27;;;;;;;7.67;5.00;;;;;;;5.50;85.17;101087.34;5030902;28;20312;-71
2024/03/19 04:25:53;;;;;;;6.63;4.80;;;;;;;5.47;85.04;101084.78;5033945;28;20665;-70
2024/03/19 04:28:20;;;;;;;7.57;4.87;;;;;;;5.44;84.81;101090.19;5033104;28;20248;-70
2024/03/19 04:30:47;;;;;;;6.23;4.27;;;;;;;5.43;84.99;101082.31;5034594;28;20329;-70
2024/03/19 04:33:13;;;;;;;5.77;4.00;;;;;;;5.37;85.09;101088.69;5036566;28;20312;-71
2024/03/19 04:35:40;;;;;;;6.13;4.07;;;;;;;5.30;85.42;101084.53;5030515;28;20269;-70
2024/03/19 04:38:06;;;;;;;6.43;4.30;;;;;;;5.27;85.28;101082.00;5032098;28;20206;-69
2024/03/19 04:40:34;;;;;;;6.63;4.10;;;;;;;5.23;85.47;101083.00;5030434;28;20293;-70
2024/03/19 04:43:01;;;;;;;4.87;4.33;;;;;;;5.18;85.52;101082.31;5034520;28;20823;-70
2024/03/19 04:45:27;;;;;;;4.80;4.10;;;;;;;5.16;85.89;101086.78;5026897;28;20231;-71
2024/03/19 04:47:54;;;;;;;5.20;4.30;;;;;;;5.12;85.95;101093.06;5034335;28;20305;-69
2024/03/19 04:50:23;;;;;;;6.33;4.17;;;;;;;5.07;86.15;101087.09;5027232;28;20234;-70
2024/03/19 04:52:50;;;;;;;6.67;4.60;;;;;;;5.03;85.87;101096.00;5029211;28;20331;-70
2024/03/19 04:55:17;;;;;;;6.07;4.17;;;;;;;5.02;86.24;101094.28;5034555;28;20240;-70
2024/03/19 04:57:45;;;;;;;5.17;4.00;;;;;;;4.95;86.23;101084.88;5033670;28;20609;-70
2024/03/19 05:00:16;;;;;;;4.93;3.80;;;;;;;4.89;86.61;101092.06;5034546;28;20212;-70
2024/03/19 05:02:43;;;;;;;9.10;4.00;;;;;;;4.85;86.87;101089.56;5029347;28;20205;-69
2024/03/19 05:05:10;;;;;;;5.67;4.20;;;;;;;4.83;86.92;101086.13;5029459;28;20309;-69
2024/03/19 05:07:36;;;;;;;6.73;4.70;;;;;;;4.81;87.29;101090.59;5032111;28;20314;-70
2024/03/19 05:10:03;;;;;;;5.90;4.13;;;;;;;4.77;87.04;101089.84;5031103;28;20206;-70
2024/03/19 05:12:30;;;;;;;6.53;4.00;;;;;;;4.75;87.13;101090.78;5031855;28;20225;-70
2024/03/19 05:14:58;;;;;;;5.27;4.20;;;;;;;4.71;87.32;101087.38;5028398;28;20315;-70
2024/03/19 05:17:25;;;;;;;7.47;4.63;;;;;;;4.72;87.64;101099.66;5029934;28;20212;-70
2024/03/19 05:19:51;;;;;;;7.27;5.60;;;;;;;4.69;87.98;101099.75;5032375;28;20403;-70
2024/03/19 05:22:17;;;;;;;5.17;4.03;;;;;;;4.65;88.16;101089.38;5029048;28;20284;-71
2024/03/19 05:24:43;;;;;;;6.57;4.17;;;;;;;4.63;88.91;101093.84;5030465;28;20812;-70
2024/03/19 05:27:10;;;;;;;4.33;3.57;;;;;;;4.61;88.93;101091.25;5023050;28;20206;-69
2024/03/19 05:29:37;;;;;;;5.20;3.97;;;;;;;4.58;88.85;101090.47;5027835;28;20206;-71
2024/03/19 05:32:05;;;;;;;4.37;3.63;;;;;;;4.54;89.35;101085.28;5027783;28;20578;-70
2024/03/19 05:34:32;;;;;;;5.43;4.50;;;;;;;4.53;89.23;101096.75;5026229;28;20657;-70
2024/03/19 05:36:59;;;;;;;6.50;4.50;;;;;;;4.49;89.49;101097.75;5028760;28;20197;-70
2024/03/19 05:39:25;;;;;;;6.30;4.67;;;;;;;4.44;89.27;101106.72;5031525;28;20760;-69
2024/03/19 05:41:52;;;;;;;6.07;4.00;;;;;;;4.41;89.68;101105.03;5028066;28;20297;-70
2024/03/19 05:44:18;;;;;;;7.03;4.30;;;;;;;4.40;90.04;101110.38;5026431;28;20373;-69
2024/03/19 05:46:45;;;;;;;8.20;4.70;;;;;;;4.36;90.08;101101.69;5024551;28;20702;-69
2024/03/19 05:49:13;;;;;;;6.77;4.10;;;;;;;4.35;90.24;101115.78;5027969;28;20740;-70
2024/03/19 05:51:40;;;;;;;6.50;4.60;;;;;;;4.34;90.50;101119.31;5028079;28;20214;-70
2024/03/19 05:54:06;;;;;;;6.23;4.33;;;;;;;4.31;90.95;101119.41;5031827;28;20288;-71
2024/03/19 05:56:34;;;;;;;6.13;4.30;;;;;;;4.28;91.50;101124.78;5028465;28;20213;-70
2024/03/19 05:59:01;;;;;;;6.63;4.20;;;;;;;4.29;91.75;101113.34;5029513;28;20197;-71
2024/03/19 06:01:27;;;;;;;6.00;4.83;;;;;;;4.30;91.69;101127.38;5033285;28;20465;-70
2024/03/19 06:03:54;;;;;;;7.37;4.37;;;;;;;4.27;92.23;101127.47;5024274;28;20229;-70
2024/03/19 06:06:22;;;;;;;5.73;4.47;;;;;;;4.30;92.17;101130.84;5033361;28;20688;-71
2024/03/19 06:08:49;;;;;;;6.17;5.20;;;;;;;4.31;92.36;101129.94;5031389;28;20889;-71
2024/03/19 06:11:16;;;;;;;6.53;4.30;;;;;;;4.34;92.47;101129.00;5030960;28;20252;-70
2024/03/19 06:13:43;;;;;;;8.27;4.77;;;;;;;4.33;92.45;101135.19;5029529;28;20241;-70
2024/03/19 06:16:09;;;;;;;5.63;4.47;;;;;;;4.36;92.50;101128.03;5032447;28;20206;-71
2024/03/19 06:18:37;;;;;;;7.10;4.67;;;;;;;4.37;92.58;101127.13;5028133;28;20213;-71
2024/03/19 06:21:04;;;;;;;5.30;4.17;;;;;;;4.38;92.54;101135.91;5033516;28;20203;-70
2024/03/19 06:23:32;;;;;;;7.03;4.80;;;;;;;4.40;92.91;101144.66;5031224;28;20392;-70
2024/03/19 06:25:58;;;;;;;7.87;5.03;;;;;;;4.42;93.11;101137.56;5030082;28;20598;-70
2024/03/19 06:28:25;;;;;;;6.03;4.43;;;;;;;4.46;93.54;101141.84;5021580;28;20301;-69
2024/03/19 06:30:52;;;;;;;6.13;4.90;;;;;;;4.48;93.02;101147.91;5027195;28;20217;-70
2024/03/19 06:33:19;;;;;;;8.50;4.50;;;;;;;4.46;93.62;101145.34;5028395;28;20412;-70
2024/03/19 06:35:45;;;;;;;7.43;4.90;;;;;;;4.46;93.46;101152.38;5027767;28;20213;-70
2024/03/19 06:38:12;;;;;;;5.50;4.20;;;;;;;4.46;93.41;101152.38;5028863;28;20202;-70
2024/03/19 06:40:40;;;;;;;6.73;4.60;;;;;;;4.46;93.97;101157.66;5021816;28;20313;-70
2024/03/19 06:43:06;;;;;;;5.70;4.43;;;;;;;4.47;94.46;101157.63;5033361;28;20305;-70
2024/03/19 06:45:33;;;;;;;6.60;5.20;;;;;;;4.50;94.61;101154.84;5027210;28;20208;-70
2024/03/19 06:48:00;;;;;;;8.97;5.43;;;;;;;4.53;94.52;101161.81;5029009;28;20288;-73
2024/03/19 06:50:26;;;;;;;7.17;4.23;;;;;;;4.53;94.80;101156.53;5026094;28;20305;-69
2024/03/19 06:52:55;;;;;;;6.90;4.73;;;;;;;4.55;94.94;101154.72;5029489;28;20234;-70
2024/03/19 06:55:21;;;;;;;7.10;5.20;;;;;;;4.58;95.33;101154.63;5031506;28;20225;-70
2024/03/19 06:57:51;;;;;;;8.10;5.80;;;;;;;4.63;95.82;101165.06;5036472;28;20673;-70
2024/03/19 07:00:19;;;;;;;8.03;6.00;;;;;;;4.68;96.09;101166.63;5033421;28;20210;-70
2024/03/19 07:02:46;;;;;;;11.30;6.37;;;;;;;4.72;96.14;101173.53;5029064;28;21698;-70
2024/03/19 07:05:13;;;;;;;6.07;5.17;;;;;;;4.77;96.39;101166.34;5031837;28;20269;-70
2024/03/19 07:07:40;;;;;;;8.60;5.27;;;;;;;4.82;96.21;101175.00;5030422;28;20459;-69
2024/03/19 07:10:10;;;;;;;7.73;5.00;;;;;;;4.86;96.72;101178.38;5031122;28;20209;-70
2024/03/19 07:12:37;;;;;;;8.60;5.37;;;;;;;4.94;96.33;101183.44;5033094;28;20640;-69
2024/03/19 07:15:10;;;;;;;6.20;5.03;;;;;;;4.99;96.33;101184.16;5030424;28;20222;-70
2024/03/19 07:17:37;;;;;;;7.40;6.00;;;;;;;5.04;96.26;101179.56;5033605;28;20201;-69
2024/03/19 07:20:09;;;;;;;7.97;5.20;;;;;;;5.11;96.34;101183.75;5032451;28;20310;-70
2024/03/19 07:22:36;;;;;;;7.23;5.33;;;;;;;5.19;96.41;101189.66;5031814;28;20205;-70
2024/03/19 07:25:04;;;;;;;7.73;5.63;;;;;;;5.26;96.70;101188.53;5030477;28;20710;-72
2024/03/19 07:27:31;;;;;;;7.73;5.87;;;;;;;5.33;96.33;101195.34;5032612;28;20757;-69
2024/03/19 07:29:58;;;;;;;8.63;6.33;;;;;;;5.43;96.32;101204.69;5032795;28;20501;-70
2024/03/19 07:32:26;;;;;;;12.10;6.30;;;;;;;5.51;95.82;101204.44;5033526;28;20289;-71
2024/03/19 07:34:53;;;;;;;9.13;6.27;;;;;;;5.56;94.76;101202.47;5031151;28;20568;-70
2024/03/19 07:37:19;;;;;;;9.43;6.17;;;;;;;5.64;94.28;101207.53;5036224;28;20210;-70
2024/03/19 07:39:46;;;;;;;10.17;6.13;;;;;;;5.72;94.12;101211.66;5026287;28;20214;-70
2024/03/19 07:42:12;;;;;;;11.20;5.90;;;;;;;5.85;94.33;101212.94;5027260;28;20870;-71
2024/03/19 07:44:39;;;;;;;8.30;5.73;;;;;;;6.00;94.10;101219.50;5027985;28;20317;-70
2024/03/19 07:47:07;;;;;;;8.80;6.13;;;;;;;6.14;93.54;101219.84;5032548;28;20555;-70
2024/03/19 07:49:35;;;;;;;13.87;6.63;;;;;;;6.26;93.46;101214.16;5035434;28;20289;-70
2024/03/19 07:52:04;;;;;;;11.43;6.70;;;;;;;6.41;93.07;101214.50;5031812;28;20658;-70
2024/03/19 07:54:31;;;;;;;15.03;7.60;;;;;;;6.55;92.82;101212.19;5032991;28;20233;-70
2024/03/19 07:56:57;;;;;;;12.70;7.60;;;;;;;6.70;92.15;101219.53;5030489;28;20220;-70
2024/03/19 07:59:24;;;;;;;11.60;7.63;;;;;;;6.86;89.98;101219.81;5032411;28;20206;-71
2024/03/19 08:01:51;;;;;;;12.70;7.67;;;;;;;6.99;88.22;101210.44;5030005;28;20210;-70
2024/03/19 08:04:20;;;;;;;10.83;7.33;;;;;;;7.11;88.12;101217.94;5019910;28;20226;-70
2024/03/19 08:06:48;;;;;;;12.10;7.60;;;;;;;7.23;87.92;101217.44;5026328;28;20202;-71
2024/03/19 08:09:14;;;;;;;10.77;7.90;;;;;;;7.37;86.61;101218.66;5026037;28;20462;-71
2024/03/19 08:11:42;;;;;;;12.80;8.30;;;;;;;7.44;86.07;101218.34;5019356;28;20206;-70
2024/03/19 08:14:08;;;;;;;14.10;8.37;;;;;;;7.56;86.22;101228.44;5027702;28;20292;-71
2024/03/19 08:16:35;;;;;;;15.43;8.87;;;;;;;7.68;86.65;101224.41;5023351;28;20680;-70
2024/03/19 08:19:01;;;;;;;13.63;8.90;;;;;;;7.86;86.41;101228.09;5015241;28;20332;-70
2024/03/19 08:21:28;;;;;;;14.97;9.37;;;;;;;8.05;87.20;101223.69;5025273;28;20769;-70
2024/03/19 08:23:56;;;;;;;14.17;9.20;;;;;;;8.24;85.54;101216.63;5019581;28;20287;-70
2024/03/19 08:26:23;;;;;;;16.03;10.27;;;;;;;8.44;84.87;101205.16;5022838;28;20654;-70
2024/03/19 08:28:50;;;;;;;18.27;10.80;;;;;;;8.65;86.20;101205.97;5023769;28;20285;-71
2024/03/19 08:31:17;;;;;;;19.00;10.90;;;;;;;8.86;85.88;101207.63;5023470;28;20210;-68
2024/03/19 08:33:43;;;;;;;18.13;10.47;;;;;;;9.11;85.46;101206.44;5024326;28;20891;-71
2024/03/19 08:36:10;;;;;;;19.33;11.57;;;;;;;9.35;84.26;101200.78;5025115;28;20198;-70
2024/03/19 08:38:38;;;;;;;17.10;11.13;;;;;;;9.61;83.82;101198.63;5016092;28;20306;-73
2024/03/19 08:41:06;;;;;;;18.37;11.87;;;;;;;9.79;82.41;101197.69;5024942;28;20204;-72
2024/03/19 08:43:32;;;;;;;20.67;11.50;;;;;;;9.95;82.34;101195.09;5024827;28;20237;-71
2024/03/19 08:45:59;;;;;;;17.33;11.00;;;;;;;10.07;81.35;101202.44;5021907;28;20237;-71
2024/03/19 08:48:25;;;;;;;24.63;12.73;;;;;;;10.16;81.16;101201.97;5021506;28;20311;-71
2024/03/19 08:50:52;;;;;;;20.27;11.93;;;;;;;10.26;80.75;101200.53;5026194;28;20213;-72
2024/03/19 08:53:19;;;;;;;18.80;10.83;;;;;;;10.32;81.01;101208.22;5025140;28;20202;-72
2024/03/19 08:55:56;;;;;;;19.87;11.20;;;;;;;10.38;80.44;101207.91;5022835;28;20682;-71
2024/03/19 08:58:24;;;;;;;16.67;11.17;;;;;;;10.40;80.29;101203.31;5023275;28;20203;-72
2024/03/19 09:00:51;;;;;;;17.20;10.77;;;;;;;10.41;80.06;101206.84;5020456;28;20206;-71
2024/03/19 09:03:17;;;;;;;19.33;12.37;;;;;;;10.48;80.66;101205.59;5023191;28;20210;-71
2024/03/19 09:05:44;;;;;;;19.10;11.50;;;;;;;10.54;80.54;101207.06;5022950;28;20293;-72
2024/03/19 09:08:11;;;;;;;19.20;11.57;;;;;;;10.57;80.97;101206.91;5022947;28;20203;-71
2024/03/19 09:10:38;;;;;;;17.70;11.53;;;;;;;10.62;81.08;101204.81;5024649;28;20304;-72
2024/03/19 09:13:04;;;;;;;21.30;11.97;;;;;;;10.69;80.40;101207.09;5022679;28;20199;-72
2024/03/19 09:15:32;;;;;;;21.77;12.80;;;;;;;10.76;80.88;101212.91;5019985;28;20329;-72
2024/03/19 09:17:59;;;;;;;18.37;11.73;;;;;;;10.83;80.89;101210.78;5020589;28;20206;-72
2024/03/19 09:20:25;;;;;;;21.53;12.90;;;;;;;10.86;80.22;101219.47;5024057;28;20301;-72
2024/03/19 09:22:52;;;;;;;21.37;12.70;;;;;;;10.92;80.36;101218.28;5022348;28;20639;-71
2024/03/19 09:25:19;;;;;;;15.73;11.50;;;;;;;10.96;79.99;101230.47;5024952;28;20219;-72
2024/03/19 09:27:45;;;;;;;20.37;12.43;;;;;;;11.02;79.63;101220.34;5019644;28;20224;-72
2024/03/19 09:30:13;;;;;;;18.57;12.33;;;;;;;11.08;79.46;101227.13;5020893;28;20305;-72
2024/03/19 09:32:41;;;;;;;23.70;12.80;;;;;;;11.19;79.12;101226.53;5023457;28;20675;-72
2024/03/19 09:35:09;;;;;;;25.23;13.10;;;;;;;11.28;79.12;101226.88;5021445;28;20323;-72
2024/03/19 09:37:36;;;;;;;23.40;13.20;;;;;;;11.44;79.51;101225.03;5021724;28;20668;-72
2024/03/19 09:40:06;;;;;;;22.23;12.63;;;;;;;11.58;80.02;101228.72;5018468;28;20214;-72
2024/03/19 09:42:32;;;;;;;21.13;11.37;;;;;;;11.74;77.48;101229.53;5023463;28;20206;-72
2024/03/19 09:45:00;;;;;;;26.60;13.90;;;;;;;11.82;76.67;101214.78;5022957;28;20328;-72
2024/03/19 09:47:27;;;;;;;21.53;12.30;;;;;;;11.89;76.39;101222.44;5022344;28;20232;-71
2024/03/19 09:49:56;;;;;;;25.73;12.80;;;;;;;11.95;75.85;101216.75;5025257;28;20204;-72
2024/03/19 09:52:24;;;;;;;23.10;13.97;;;;;;;12.05;75.51;101221.44;5029840;28;20292;-72
2024/03/19 09:54:50;;;;;;;20.90;12.27;;;;;;;12.11;74.61;101207.72;5030784;28;20316;-72
2024/03/19 09:57:19;;;;;;;24.00;12.60;;;;;;;12.19;73.82;101209.91;5031479;28;20290;-72
2024/03/19 09:59:46;;;;;;;19.93;12.90;;;;;;;12.25;74.33;101211.34;5031151;28;20211;-72
2024/03/19 10:02:17;;;;;;;20.27;13.27;;;;;;;12.29;73.33;101205.75;5031125;28;21022;-72
2024/03/19 10:04:46;;;;;;;21.10;12.50;;;;;;;12.30;74.02;101202.13;5028762;28;20225;-72
2024/03/19 10:07:15;;;;;;;22.10;13.20;;;;;;;12.37;73.78;101205.25;5033253;28;20303;-72
2024/03/19 10:09:45;;;;;;;23.50;12.30;;;;;;;12.42;73.38;101198.69;5028349;28;20289;-72
2024/03/19 10:12:11;;;;;;;23.83;12.87;;;;;;;12.42;72.90;101212.03;5031682;28;20590;-72
2024/03/19 10:14:38;;;;;;;21.97;12.80;;;;;;;12.41;72.06;101207.63;5027733;28;20347;-72
2024/03/19 10:17:06;;;;;;;25.37;13.83;;;;;;;12.44;72.61;101209.28;5031999;28;20293;-71
2024/03/19 10:19:34;;;;;;;18.67;12.97;;;;;;;12.48;72.18;101206.31;5028503;28;20531;-72
2024/03/19 10:22:00;;;;;;;22.53;13.77;;;;;;;12.51;72.97;101206.13;5025279;28;20690;-71
2024/03/19 10:24:28;;;;;;;20.90;12.50;;;;;;;12.62;73.05;101200.09;5024908;28;20316;-71
2024/03/19 10:26:55;;;;;;;21.23;12.17;;;;;;;12.73;72.29;101202.09;5035529;28;20312;-71
2024/03/19 10:29:22;;;;;;;22.20;12.67;;;;;;;12.83;72.39;101205.91;5033972;28;20208;-72
2024/03/19 10:31:49;;;;;;;20.60;12.33;;;;;;;12.90;72.66;101196.50;5014611;28;20840;-70
2024/03/19 10:34:18;;;;;;;24.97;13.50;;;;;;;13.01;72.54;101195.84;5031318;28;20256;-71
2024/03/19 10:36:48;;;;;;;21.37;12.87;;;;;;;13.15;71.49;101195.81;5021864;28;20511;-71
2024/03/19 10:39:16;;;;;;;21.27;12.53;;;;;;;13.27;70.08;101194.16;5035514;28;20688;-71
2024/03/19 10:41:46;;;;;;;20.83;12.03;;;;;;;13.35;70.69;101192.69;5027844;28;20212;-71
2024/03/19 10:44:16;;;;;;;21.60;12.40;;;;;;;13.47;70.37;101197.22;5025391;28;20222;-70
2024/03/19 10:46:43;;;;;;;19.70;11.70;;;;;;;13.56;69.84;101190.41;5030364;28;20728;-70
2024/03/19 10:49:15;;;;;;;17.70;11.77;;;;;;;13.63;68.33;101186.34;5016263;28;20591;-72
2024/03/19 10:51:42;;;;;;;19.47;12.90;;;;;;;13.65;67.53;101189.78;5030260;28;20340;-70
2024/03/19 10:54:10;;;;;;;18.37;12.23;;;;;;;13.69;68.22;101187.75;5024373;28;20329;-71
2024/03/19 10:56:36;;;;;;;21.80;12.83;;;;;;;13.76;68.67;101186.41;5021819;28;20202;-72
2024/03/19 10:59:05;;;;;;;20.00;12.27;;;;;;;13.83;68.79;101185.84;5027139;28;20241;-72
2024/03/19 11:01:32;;;;;;;23.30;13.23;;;;;;;13.87;68.30;101190.03;5027191;28;20221;-71
2024/03/19 11:04:03;;;;;;;21.10;12.77;;;;;;;13.95;67.84;101191.34;5026147;28;20260;-72
2024/03/19 11:06:29;;;;;;;19.30;11.93;;;;;;;14.05;68.16;101192.41;5024098;28;20285;-72
2024/03/19 11:08:56;;;;;;;21.60;12.57;;;;;;;14.10;65.99;101190.28;5028113;28;20210;-71
2024/03/19 11:11:31;;;;;;;22.17;12.93;;;;;;;14.14;66.43;101187.31;5025581;28;20268;-72
2024/03/19 11:14:01;;;;;;;19.20;12.00;;;;;;;14.21;65.53;101182.34;5022827;28;20380;-71
2024/03/19 11:16:39;;;;;;;20.53;12.67;;;;;;;14.28;64.86;101183.66;5023791;28;20234;-71
2024/03/19 11:19:16;;;;;;;20.20;11.83;;;;;;;14.30;64.56;101180.88;5025893;28;20284;-71
2024/03/19 11:21:44;;;;;;;18.93;12.13;;;;;;;14.30;64.43;101181.72;5032662;28;20209;-71
2024/03/19 11:24:22;;;;;;;19.17;11.30;;;;;;;14.35;64.28;101184.06;5032840;28;20288;-71
2024/03/19 11:26:49;;;;;;;17.43;11.10;;;;;;;14.38;63.97;101179.34;5024941;28;20753;-72